Time;durP1;ratioP1;P1;durP2;ratioP2;P2;SDS_P1;SDS_P2;PMS_P1;PMS_P2;Temp;Humidity;BMP_temperature;BMP_pressure;BME280_temperature;BME280_humidity;BME280_pressure;Samples;Min_cycle;Max_cycle;Signal;HPM_P1;HPM_P2
2023/06/18 00:02:05;;;;;;;34.17;28.27;;;17.20;99.90;;;;;;5095876;28;20047;-70
2023/06/18 00:04:32;;;;;;;34.73;28.93;;;17.20;99.90;;;;;;5113956;28;20062;-70
2023/06/18 00:06:58;;;;;;;36.33;30.13;;;17.30;99.90;;;;;;5113306;28;20062;-70
2023/06/18 00:09:24;;;;;;;34.40;28.47;;;17.30;99.90;;;;;;5113847;28;20039;-70
2023/06/18 00:11:50;;;;;;;34.23;29.37;;;17.30;99.90;;;;;;5095375;28;20047;-70
2023/06/18 00:14:17;;;;;;;34.33;27.83;;;17.20;99.90;;;;;;5113324;28;20519;-70
2023/06/18 00:16:43;;;;;;;33.77;28.37;;;17.10;99.90;;;;;;5113584;28;20048;-71
2023/06/18 00:19:08;;;;;;;34.03;30.07;;;17.00;99.90;;;;;;5113571;28;20399;-70
2023/06/18 00:21:34;;;;;;;34.17;27.37;;;17.00;99.90;;;;;;5113676;28;20054;-70
2023/06/18 00:24:00;;;;;;;37.07;30.97;;;16.90;99.90;;;;;;5113396;28;20052;-70
2023/06/18 00:26:25;;;;;;;35.33;30.20;;;16.80;99.90;;;;;;5113528;28;20054;-71
2023/06/18 00:28:52;;;;;;;36.87;30.77;;;16.80;99.90;;;;;;5095013;28;20046;-71
2023/06/18 00:31:19;;;;;;;38.20;31.47;;;16.70;99.90;;;;;;5113766;28;20130;-70
2023/06/18 00:33:45;;;;;;;34.90;29.57;;;16.60;99.90;;;;;;5113129;28;20047;-71
2023/06/18 00:36:12;;;;;;;38.70;31.70;;;16.60;99.90;;;;;;5078691;28;20044;-70
2023/06/18 00:38:45;;;;;;;36.40;30.10;;;16.60;99.90;;;;;;5113375;28;20379;-70
2023/06/18 00:41:11;;;;;;;35.87;29.90;;;16.70;99.90;;;;;;5113678;28;20126;-70
2023/06/18 00:43:37;;;;;;;35.17;29.93;;;16.80;99.90;;;;;;5112826;28;20035;-70
2023/06/18 00:46:05;;;;;;;32.67;29.17;;;16.70;99.90;;;;;;5113036;28;20043;-70
2023/06/18 00:48:32;;;;;;;33.43;28.90;;;16.70;99.90;;;;;;5113255;28;20047;-70
2023/06/18 00:51:01;;;;;;;34.07;29.00;;;16.70;99.90;;;;;;5094655;28;20058;-71
2023/06/18 00:53:28;;;;;;;35.20;30.20;;;16.70;99.90;;;;;;5095216;28;20460;-70
2023/06/18 00:55:53;;;;;;;33.47;29.30;;;16.80;99.90;;;;;;5112521;28;20554;-71
2023/06/18 00:58:23;;;;;;;34.90;27.77;;;16.70;99.90;;;;;;5113150;28;20078;-70
2023/06/18 01:00:50;;;;;;;34.07;28.40;;;16.80;99.90;;;;;;5112777;28;20047;-71
2023/06/18 01:03:18;;;;;;;36.00;29.50;;;16.80;99.90;;;;;;5113318;28;20047;-70
2023/06/18 01:05:47;;;;;;;37.17;29.70;;;16.80;99.90;;;;;;5094884;28;20055;-76
2023/06/18 01:08:14;;;;;;;31.53;27.20;;;16.90;99.90;;;;;;5094854;28;20064;-71
2023/06/18 01:10:40;;;;;;;35.63;29.53;;;16.90;99.90;;;;;;5112886;28;20040;-70
2023/06/18 01:13:14;;;;;;;35.63;30.03;;;17.00;99.90;;;;;;5112243;28;20050;-71
2023/06/18 01:15:40;;;;;;;35.60;28.10;;;16.90;99.90;;;;;;5113105;28;20063;-70
2023/06/18 01:18:07;;;;;;;35.47;29.43;;;16.90;99.90;;;;;;5112255;28;20055;-70
2023/06/18 01:20:41;;;;;;;32.57;28.73;;;16.90;99.90;;;;;;5112842;28;20043;-71
2023/06/18 01:23:17;;;;;;;33.67;28.43;;;16.90;99.90;;;;;;5112612;28;20055;-71
2023/06/18 01:25:44;;;;;;;35.47;29.37;;;16.80;99.90;;;;;;5112886;28;20047;-71
2023/06/18 01:28:10;;;;;;;31.17;27.00;;;16.70;99.90;;;;;;5112568;28;20126;-70
2023/06/18 01:30:36;;;;;;;35.17;28.93;;;16.60;99.90;;;;;;5112804;28;20052;-70
2023/06/18 01:33:03;;;;;;;36.63;29.20;;;16.50;99.90;;;;;;5112338;28;20040;-71
2023/06/18 01:35:29;;;;;;;35.47;29.33;;;16.50;99.90;;;;;;5094927;28;20198;-70
2023/06/18 01:38:01;;;;;;;36.37;30.93;;;16.50;99.90;;;;;;5112466;28;20170;-71
2023/06/18 01:40:36;;;;;;;32.50;28.10;;;16.50;99.90;;;;;;5112993;28;20054;-70
2023/06/18 01:43:11;;;;;;;34.90;30.35;;;16.50;99.90;;;;;;5112036;28;20484;-71
2023/06/18 01:45:47;;;;;;;35.23;31.43;;;16.50;99.90;;;;;;5112866;28;20052;-70
2023/06/18 01:48:13;;;;;;;35.63;29.83;;;16.50;99.90;;;;;;5094183;28;20479;-70
2023/06/18 01:50:44;;;;;;;36.17;30.50;;;16.50;99.90;;;;;;5112507;28;20130;-71
2023/06/18 01:53:15;;;;;;;36.00;31.27;;;16.50;99.90;;;;;;5112297;28;20395;-70
2023/06/18 01:55:44;;;;;;;34.20;29.83;;;16.40;99.90;;;;;;5113953;28;20040;-70
2023/06/18 01:58:13;;;;;;;34.20;29.63;;;16.30;99.90;;;;;;5116168;28;20048;-70
2023/06/18 02:00:40;;;;;;;36.57;30.03;;;16.30;99.90;;;;;;5116396;28;20123;-70
2023/06/18 02:03:06;;;;;;;38.63;31.40;;;16.20;99.90;;;;;;5116040;28;20043;-70
2023/06/18 02:05:31;;;;;;;34.73;29.37;;;16.20;99.90;;;;;;5116310;28;20052;-70
2023/06/18 02:07:57;;;;;;;35.43;30.13;;;16.20;99.90;;;;;;5116099;28;20039;-70
2023/06/18 02:10:23;;;;;;;38.03;31.57;;;16.20;99.90;;;;;;5116523;28;20120;-70
2023/06/18 02:12:49;;;;;;;34.90;30.57;;;16.20;99.90;;;;;;5116215;28;20122;-70
2023/06/18 02:15:14;;;;;;;34.43;29.47;;;16.20;99.90;;;;;;5097507;28;20051;-70
2023/06/18 02:17:40;;;;;;;37.00;31.43;;;16.20;99.90;;;;;;5116147;28;20367;-70
2023/06/18 02:20:08;;;;;;;36.77;30.53;;;16.30;99.90;;;;;;5115757;28;20047;-70
2023/06/18 02:22:35;;;;;;;34.70;30.03;;;16.20;99.90;;;;;;5116031;28;20047;-70
2023/06/18 02:25:01;;;;;;;36.77;30.67;;;16.20;99.90;;;;;;5115742;28;20530;-71
2023/06/18 02:27:27;;;;;;;34.93;29.83;;;16.20;99.90;;;;;;5115966;28;20081;-70
2023/06/18 02:29:53;;;;;;;37.57;30.53;;;16.20;99.90;;;;;;5115898;28;20074;-70
2023/06/18 02:32:18;;;;;;;34.80;29.93;;;16.20;99.90;;;;;;5115699;28;20481;-71
2023/06/18 02:34:44;;;;;;;33.47;29.77;;;16.10;99.90;;;;;;5097439;28;20047;-70
2023/06/18 02:37:10;;;;;;;36.57;31.43;;;16.10;99.90;;;;;;5115508;28;20087;-71
2023/06/18 02:39:36;;;;;;;37.07;29.97;;;16.00;99.90;;;;;;5115660;28;20055;-70
2023/06/18 02:42:02;;;;;;;36.57;30.43;;;16.00;99.90;;;;;;5115134;28;20052;-71
2023/06/18 02:44:28;;;;;;;34.23;28.77;;;16.00;99.90;;;;;;5115578;28;20188;-71
2023/06/18 02:46:55;;;;;;;34.03;28.57;;;15.90;99.90;;;;;;5115827;28;20055;-70
2023/06/18 02:49:21;;;;;;;41.33;30.00;;;15.90;99.90;;;;;;5115501;28;20044;-70
2023/06/18 02:51:48;;;;;;;34.73;28.57;;;16.00;99.90;;;;;;5115519;28;20047;-70
2023/06/18 02:54:13;;;;;;;32.87;28.57;;;16.00;99.90;;;;;;5115065;28;20390;-70
2023/06/18 02:56:40;;;;;;;36.60;30.23;;;16.00;99.90;;;;;;5115394;28;20044;-70
2023/06/18 02:59:05;;;;;;;35.13;28.60;;;16.00;99.90;;;;;;5097022;28;20055;-70
2023/06/18 03:01:31;;;;;;;36.03;28.93;;;16.00;99.90;;;;;;5115263;28;20043;-70
2023/06/18 03:03:57;;;;;;;34.07;28.93;;;15.90;99.90;;;;;;5115261;28;20054;-77
2023/06/18 03:06:23;;;;;;;32.47;28.47;;;15.90;99.90;;;;;;5096794;28;20423;-70
2023/06/18 03:08:49;;;;;;;34.43;30.13;;;15.90;99.90;;;;;;5096848;28;20058;-70
2023/06/18 03:11:15;;;;;;;35.43;30.00;;;15.90;99.90;;;;;;5096745;28;20050;-70
2023/06/18 03:13:41;;;;;;;37.73;31.47;;;15.80;99.90;;;;;;5114691;28;20044;-70
2023/06/18 03:16:07;;;;;;;35.90;29.73;;;15.90;99.90;;;;;;5114764;28;20498;-70
2023/06/18 03:18:33;;;;;;;35.60;30.37;;;15.80;99.90;;;;;;5114925;28;20388;-71
2023/06/18 03:20:59;;;;;;;33.47;27.97;;;15.90;99.90;;;;;;5114824;28;20047;-77
2023/06/18 03:23:25;;;;;;;36.50;29.97;;;15.80;99.90;;;;;;5114527;28;20032;-70
2023/06/18 03:25:52;;;;;;;34.53;29.37;;;15.80;99.90;;;;;;5114577;28;20052;-70
2023/06/18 03:28:18;;;;;;;34.33;29.67;;;15.90;99.90;;;;;;5114433;28;20050;-71
2023/06/18 03:30:44;;;;;;;34.23;28.63;;;15.90;99.90;;;;;;5114671;28;20116;-70
2023/06/18 03:33:10;;;;;;;33.67;29.37;;;16.00;99.90;;;;;;5096289;28;20182;-70
2023/06/18 03:35:37;;;;;;;35.20;28.37;;;16.00;99.90;;;;;;5114625;28;20047;-70
2023/06/18 03:38:03;;;;;;;37.37;29.80;;;15.90;99.90;;;;;;5096181;28;20073;-71
2023/06/18 03:40:30;;;;;;;34.93;29.73;;;15.90;99.90;;;;;;5096434;28;20126;-71
2023/06/18 03:42:56;;;;;;;34.43;28.80;;;15.90;99.90;;;;;;5114447;28;20047;-70
2023/06/18 03:45:21;;;;;;;34.30;28.17;;;15.80;99.90;;;;;;5114024;28;20946;-70
2023/06/18 03:47:47;;;;;;;33.33;27.73;;;15.80;99.90;;;;;;5114319;28;20047;-70
2023/06/18 03:50:13;;;;;;;32.63;28.43;;;15.80;99.90;;;;;;5114009;28;20083;-70
2023/06/18 03:52:39;;;;;;;32.83;27.37;;;15.80;99.90;;;;;;5113936;28;20044;-70
2023/06/18 03:55:05;;;;;;;31.13;27.20;;;15.90;99.90;;;;;;5095691;28;20057;-71
2023/06/18 03:57:31;;;;;;;32.70;27.70;;;15.90;99.90;;;;;;5114157;28;20073;-70
2023/06/18 03:59:57;;;;;;;31.43;27.83;;;16.00;99.90;;;;;;5114120;28;20051;-70
2023/06/18 04:02:23;;;;;;;32.50;27.50;;;16.00;99.90;;;;;;5113832;28;20043;-71
2023/06/18 04:04:49;;;;;;;31.53;26.37;;;16.00;99.90;;;;;;5114067;28;20070;-71
2023/06/18 04:07:14;;;;;;;31.27;25.97;;;16.00;99.90;;;;;;5095775;28;20483;-70
2023/06/18 04:09:41;;;;;;;30.67;26.43;;;16.00;99.90;;;;;;5113964;28;20082;-71
2023/06/18 04:12:08;;;;;;;34.63;27.63;;;16.00;99.90;;;;;;5078964;28;20051;-71
2023/06/18 04:14:36;;;;;;;29.57;25.67;;;16.00;99.90;;;;;;5113652;28;20471;-70
2023/06/18 04:17:02;;;;;;;32.77;28.00;;;15.90;99.90;;;;;;5113898;28;20135;-70
2023/06/18 04:19:28;;;;;;;31.60;26.23;;;15.90;99.90;;;;;;5112795;28;20130;-71
2023/06/18 04:21:53;;;;;;;36.60;28.70;;;15.90;99.90;;;;;;5113701;28;20130;-71
2023/06/18 04:24:19;;;;;;;30.57;26.23;;;15.90;99.90;;;;;;5113446;28;20043;-70
2023/06/18 04:26:45;;;;;;;32.60;26.73;;;16.00;99.90;;;;;;5113374;28;20403;-71
2023/06/18 04:29:10;;;;;;;29.17;24.83;;;16.10;99.90;;;;;;5113673;28;20059;-71
2023/06/18 04:31:36;;;;;;;32.40;27.57;;;16.10;99.90;;;;;;5095390;28;20419;-70
2023/06/18 04:34:02;;;;;;;32.63;26.80;;;16.10;99.90;;;;;;5113460;28;20044;-70
2023/06/18 04:36:27;;;;;;;30.63;25.87;;;16.10;99.90;;;;;;5113206;28;20044;-71
2023/06/18 04:38:53;;;;;;;29.17;25.63;;;16.10;99.90;;;;;;5095683;28;20061;-70
2023/06/18 04:41:19;;;;;;;31.07;25.77;;;16.20;99.90;;;;;;5113095;28;20130;-71
2023/06/18 04:43:45;;;;;;;29.80;25.70;;;16.20;99.90;;;;;;5113406;28;20044;-70
2023/06/18 04:46:10;;;;;;;29.43;25.70;;;16.30;99.90;;;;;;5078289;28;20043;-71
2023/06/18 04:48:36;;;;;;;31.30;26.70;;;16.30;99.90;;;;;;5113242;28;20058;-71
2023/06/18 04:51:02;;;;;;;30.63;27.33;;;16.30;99.90;;;;;;5113177;28;20126;-70
2023/06/18 04:53:29;;;;;;;29.33;26.07;;;16.30;99.90;;;;;;5094799;28;20071;-70
2023/06/18 04:55:55;;;;;;;30.80;25.50;;;16.40;99.90;;;;;;5113175;28;20056;-71
2023/06/18 04:58:21;;;;;;;29.93;26.73;;;16.40;99.90;;;;;;5112845;28;20051;-71
2023/06/18 05:00:47;;;;;;;32.17;27.53;;;16.40;99.90;;;;;;5113090;28;20052;-70
2023/06/18 05:03:13;;;;;;;34.20;27.93;;;16.40;99.90;;;;;;5112882;28;20035;-71
2023/06/18 05:05:38;;;;;;;33.07;27.43;;;16.30;99.90;;;;;;5113106;28;20043;-71
2023/06/18 05:08:04;;;;;;;32.40;27.47;;;16.30;99.90;;;;;;5094998;28;20553;-70
2023/06/18 05:10:33;;;;;;;32.60;27.00;;;16.40;99.90;;;;;;5094722;28;20050;-70
2023/06/18 05:12:59;;;;;;;30.47;26.50;;;16.50;99.90;;;;;;5112787;28;20082;-70
2023/06/18 05:15:24;;;;;;;34.13;27.90;;;16.60;99.90;;;;;;5112262;28;20492;-70
2023/06/18 05:17:50;;;;;;;30.67;27.30;;;16.70;99.90;;;;;;5112957;28;20510;-71
2023/06/18 05:20:16;;;;;;;31.17;27.27;;;16.80;99.90;;;;;;5112711;28;20498;-70
2023/06/18 05:22:41;;;;;;;30.43;25.83;;;17.00;99.90;;;;;;5112654;28;20070;-70
2023/06/18 05:25:08;;;;;;;34.10;26.67;;;17.10;99.90;;;;;;5094555;28;20039;-71
2023/06/18 05:27:34;;;;;;;30.97;25.47;;;17.10;99.90;;;;;;5077701;28;20068;-71
2023/06/18 05:29:59;;;;;;;31.67;27.67;;;17.20;99.90;;;;;;5114844;28;20389;-71
2023/06/18 05:32:25;;;;;;;31.07;25.27;;;17.30;99.90;;;;;;5116796;28;20079;-71
2023/06/18 05:34:51;;;;;;;29.93;24.70;;;17.50;99.90;;;;;;5098335;28;20438;-70
2023/06/18 05:37:17;;;;;;;30.73;25.17;;;17.60;99.90;;;;;;5116682;28;20035;-71
2023/06/18 05:39:42;;;;;;;30.87;26.10;;;17.80;99.90;;;;;;5117017;28;20070;-70
2023/06/18 05:42:08;;;;;;;28.33;25.23;;;18.10;99.90;;;;;;5116938;28;20130;-71
2023/06/18 05:44:34;;;;;;;29.90;25.37;;;18.20;99.90;;;;;;5116490;28;20476;-70
2023/06/18 05:47:00;;;;;;;29.80;25.90;;;18.40;99.90;;;;;;5098542;28;20039;-70
2023/06/18 05:49:28;;;;;;;33.00;26.93;;;18.50;99.90;;;;;;5098553;28;20047;-71
2023/06/18 05:51:54;;;;;;;29.40;24.77;;;18.90;99.90;;;;;;5116690;28;20074;-70
2023/06/18 05:54:20;;;;;;;28.63;25.13;;;19.40;99.90;;;;;;5116243;28;20035;-71
2023/06/18 05:56:45;;;;;;;27.33;24.33;;;19.80;99.90;;;;;;5116527;28;20051;-71
2023/06/18 05:59:11;;;;;;;27.37;24.03;;;20.20;99.90;;;;;;5116570;28;20044;-71
2023/06/18 06:01:37;;;;;;;26.63;23.80;;;20.50;99.90;;;;;;5116178;28;20055;-71
2023/06/18 06:04:04;;;;;;;27.60;24.53;;;20.60;99.90;;;;;;5098192;28;20035;-71
2023/06/18 06:06:29;;;;;;;26.87;23.87;;;20.60;99.90;;;;;;5116111;28;20051;-71
2023/06/18 06:08:55;;;;;;;28.33;24.77;;;20.50;99.90;;;;;;5116300;28;20539;-71
2023/06/18 06:11:21;;;;;;;28.47;25.33;;;20.40;99.90;;;;;;5115997;28;20068;-71
2023/06/18 06:13:47;;;;;;;29.50;24.03;;;20.30;99.90;;;;;;5116003;28;20128;-70
2023/06/18 06:16:12;;;;;;;27.67;23.10;;;20.10;99.90;;;;;;5098097;28;20131;-70
2023/06/18 06:18:38;;;;;;;27.33;24.27;;;19.80;99.90;;;;;;5115639;28;20048;-71
2023/06/18 06:21:04;;;;;;;30.43;25.93;;;19.60;99.90;;;;;;5116154;28;20047;-70
2023/06/18 06:23:33;;;;;;;31.23;25.50;;;19.60;99.90;;;;;;5115878;28;20053;-71
2023/06/18 06:25:58;;;;;;;30.27;25.37;;;19.80;99.90;;;;;;5116043;28;20131;-71
2023/06/18 06:28:24;;;;;;;27.23;23.43;;;20.00;99.90;;;;;;5115846;28;20078;-70
2023/06/18 06:30:50;;;;;;;30.60;25.43;;;20.30;99.90;;;;;;5115906;28;20054;-71
2023/06/18 06:33:16;;;;;;;28.37;25.27;;;20.60;99.90;;;;;;5115927;28;20063;-70
2023/06/18 06:35:41;;;;;;;27.10;24.10;;;21.20;99.90;;;;;;5115694;28;20416;-71
2023/06/18 06:38:07;;;;;;;27.20;24.40;;;21.90;99.90;;;;;;5116227;28;20433;-68
2023/06/18 06:40:33;;;;;;;23.97;21.37;;;22.80;99.90;;;;;;5115198;28;20050;-70
2023/06/18 06:42:58;;;;;;;27.00;21.80;;;23.80;99.90;;;;;;5115128;28;20070;-71
2023/06/18 06:45:27;;;;;;;24.10;21.43;;;24.60;99.90;;;;;;5080745;28;20116;-71
2023/06/18 06:47:53;;;;;;;26.87;21.73;;;24.90;99.90;;;;;;5115417;28;20580;-70
2023/06/18 06:50:19;;;;;;;24.93;21.20;;;25.10;99.90;;;;;;5097367;28;20392;-70
2023/06/18 06:52:44;;;;;;;25.70;21.43;;;24.90;99.90;;;;;;5115192;28;20050;-70
2023/06/18 06:55:10;;;;;;;24.37;21.47;;;24.30;99.90;;;;;;5115670;28;20086;-69
2023/06/18 06:57:36;;;;;;;22.93;20.43;;;24.00;99.90;;;;;;5115187;28;20043;-69
2023/06/18 07:00:03;;;;;;;22.73;20.13;;;23.70;99.90;;;;;;5115903;28;20048;-69
2023/06/18 07:02:30;;;;;;;23.37;20.37;;;23.60;99.90;;;;;;5115149;28;20118;-69
2023/06/18 07:04:56;;;;;;;23.70;21.20;;;23.60;99.90;;;;;;5114941;28;20384;-68
2023/06/18 07:07:22;;;;;;;23.00;20.40;;;23.40;99.90;;;;;;5115198;28;20097;-69
2023/06/18 07:09:47;;;;;;;23.10;20.70;;;23.20;99.90;;;;;;5114965;28;20058;-69
2023/06/18 07:12:13;;;;;;;24.93;20.23;;;23.10;99.90;;;;;;5096641;28;20480;-69
2023/06/18 07:14:39;;;;;;;23.90;20.13;;;23.10;99.90;;;;;;5114055;28;20067;-71
2023/06/18 07:17:05;;;;;;;24.37;21.37;;;23.10;99.90;;;;;;5096295;28;20505;-70
2023/06/18 07:19:30;;;;;;;23.00;19.73;;;23.00;99.90;;;;;;5114414;28;20047;-71
2023/06/18 07:21:56;;;;;;;24.23;19.13;;;23.10;99.90;;;;;;5115020;28;20101;-70
2023/06/18 07:24:22;;;;;;;25.00;20.27;;;23.40;99.90;;;;;;5096839;28;20066;-70
2023/06/18 07:26:47;;;;;;;24.77;19.83;;;23.80;99.90;;;;;;5079282;28;20096;-70
2023/06/18 07:29:13;;;;;;;21.07;18.67;;;24.50;99.90;;;;;;5114890;28;20039;-70
2023/06/18 07:31:39;;;;;;;22.07;18.47;;;25.30;99.90;;;;;;5095938;28;20040;-70
2023/06/18 07:34:05;;;;;;;22.60;18.33;;;26.10;99.90;;;;;;5114762;28;20039;-69
2023/06/18 07:36:30;;;;;;;22.17;19.37;;;26.50;99.90;;;;;;5114483;28;20373;-71
2023/06/18 07:38:56;;;;;;;22.27;19.33;;;26.70;99.90;;;;;;5114627;28;20487;-70
2023/06/18 07:41:22;;;;;;;20.13;17.97;;;26.50;99.30;;;;;;5114620;28;20100;-70
2023/06/18 07:43:48;;;;;;;21.77;19.17;;;26.00;99.80;;;;;;5113255;28;20047;-70
2023/06/18 07:46:14;;;;;;;20.23;18.13;;;25.70;99.90;;;;;;5114139;28;20053;-70
2023/06/18 07:48:39;;;;;;;21.47;19.17;;;25.40;99.90;;;;;;5113424;28;20071;-70
2023/06/18 07:51:06;;;;;;;22.57;18.97;;;25.20;99.90;;;;;;5095780;28;20100;-70
2023/06/18 07:53:34;;;;;;;20.33;17.93;;;25.40;99.90;;;;;;5112466;28;20422;-71
2023/06/18 07:56:00;;;;;;;19.43;16.57;;;25.40;99.90;;;;;;5113934;28;20036;-70
2023/06/18 07:58:26;;;;;;;18.47;16.13;;;25.20;99.90;;;;;;5113904;28;20452;-70
2023/06/18 08:00:52;;;;;;;22.43;18.60;;;25.10;99.90;;;;;;5095157;28;20040;-70
2023/06/18 08:03:17;;;;;;;26.20;17.43;;;25.00;99.90;;;;;;5113690;28;20127;-70
2023/06/18 08:05:43;;;;;;;21.13;17.10;;;24.80;99.90;;;;;;5095118;28;20081;-70
2023/06/18 08:08:09;;;;;;;20.57;16.37;;;24.80;99.90;;;;;;5113610;28;20050;-70
2023/06/18 08:10:35;;;;;;;19.77;17.70;;;24.70;99.90;;;;;;5113718;28;20043;-70
2023/06/18 08:13:00;;;;;;;20.63;17.90;;;24.70;99.90;;;;;;5114064;28;20395;-70
2023/06/18 08:15:27;;;;;;;19.00;17.00;;;24.60;99.90;;;;;;5114008;28;20064;-70
2023/06/18 08:17:53;;;;;;;17.73;15.83;;;24.70;99.90;;;;;;5113217;28;20050;-70
2023/06/18 08:20:19;;;;;;;19.17;16.67;;;24.70;99.90;;;;;;5113138;28;20048;-71
2023/06/18 08:22:44;;;;;;;20.13;15.10;;;24.70;99.90;;;;;;5120717;27;20039;-70
2023/06/18 08:25:10;;;;;;;19.00;15.57;;;24.80;99.90;;;;;;5113228;28;20040;-70
2023/06/18 08:27:36;;;;;;;17.87;14.97;;;24.80;99.90;;;;;;5113043;28;20044;-70
2023/06/18 08:30:03;;;;;;;20.13;16.37;;;24.80;99.90;;;;;;5120934;27;20044;-69
2023/06/18 08:32:29;;;;;;;17.13;15.07;;;24.90;99.90;;;;;;5113157;28;20052;-71
2023/06/18 08:34:54;;;;;;;16.03;14.27;;;25.00;99.90;;;;;;5112797;28;20046;-70
2023/06/18 08:37:20;;;;;;;19.57;14.17;;;25.20;99.90;;;;;;5113138;28;20043;-70
2023/06/18 08:39:46;;;;;;;16.83;13.90;;;25.40;99.90;;;;;;5112817;28;20495;-72
2023/06/18 08:42:17;;;;;;;16.80;13.83;;;25.50;99.90;;;;;;5094858;28;20047;-71
2023/06/18 08:44:46;;;;;;;19.27;14.30;;;25.50;99.90;;;;;;5112673;28;20031;-70
2023/06/18 08:47:12;;;;;;;18.20;12.43;;;25.50;99.90;;;;;;5095500;28;20051;-70
2023/06/18 08:49:41;;;;;;;15.23;12.80;;;25.50;99.90;;;;;;5112781;28;20043;-71
2023/06/18 08:52:08;;;;;;;13.37;11.20;;;25.60;99.90;;;;;;5112726;28;20078;-71
2023/06/18 08:54:36;;;;;;;14.03;11.57;;;25.70;99.90;;;;;;5112746;28;20036;-70
2023/06/18 08:57:14;;;;;;;12.73;10.87;;;25.70;98.90;;;;;;5112974;28;20110;-70
2023/06/18 08:59:42;;;;;;;13.33;11.10;;;25.70;99.10;;;;;;5112956;28;20059;-72
2023/06/18 09:02:11;;;;;;;12.47;10.30;;;25.80;98.80;;;;;;5113331;28;20082;-71
2023/06/18 09:04:38;;;;;;;13.70;9.87;;;25.90;98.30;;;;;;5094757;28;20051;-76
2023/06/18 09:07:05;;;;;;;13.90;10.50;;;26.00;98.20;;;;;;5113205;28;20099;-70
2023/06/18 09:09:31;;;;;;;12.33;9.60;;;26.00;96.90;;;;;;5113177;28;20052;-69
2023/06/18 09:11:57;;;;;;;12.20;9.57;;;26.10;96.70;;;;;;5112779;28;20051;-70
2023/06/18 09:14:24;;;;;;;12.53;9.00;;;26.20;96.00;;;;;;5077773;28;20055;-70
2023/06/18 09:16:54;;;;;;;13.57;9.00;;;26.20;94.50;;;;;;5094496;28;20488;-70
2023/06/18 09:19:20;;;;;;;10.40;8.07;;;26.20;93.40;;;;;;5113405;28;20086;-70
2023/06/18 09:21:46;;;;;;;9.97;8.10;;;26.30;93.10;;;;;;5112739;28;20047;-70
2023/06/18 09:24:21;;;;;;;10.20;8.27;;;26.30;91.80;;;;;;5113029;28;20048;-70
2023/06/18 09:26:49;;;;;;;9.70;8.37;;;26.30;90.60;;;;;;5112717;28;20088;-70
2023/06/18 09:29:15;;;;;;;10.13;7.97;;;26.40;90.60;;;;;;5113214;28;20044;-70
2023/06/18 09:31:47;;;;;;;10.07;7.63;;;26.40;90.70;;;;;;5094581;28;20039;-74
2023/06/18 09:34:17;;;;;;;11.60;8.63;;;26.50;90.70;;;;;;5112950;28;20046;-70
2023/06/18 09:36:45;;;;;;;10.77;7.80;;;26.60;90.00;;;;;;5112693;28;20058;-71
2023/06/18 09:39:18;;;;;;;10.93;7.73;;;26.70;90.00;;;;;;5113072;28;20121;-70
2023/06/18 09:41:49;;;;;;;10.83;8.17;;;26.60;85.20;;;;;;5112772;28;20079;-71
2023/06/18 09:44:16;;;;;;;11.40;8.83;;;26.60;85.60;;;;;;5113217;28;20051;-70
2023/06/18 09:46:44;;;;;;;9.57;7.70;;;26.70;86.30;;;;;;5112887;28;20063;-71
2023/06/18 09:49:12;;;;;;;11.60;8.43;;;26.70;86.00;;;;;;5113099;28;20044;-71
2023/06/18 09:51:40;;;;;;;11.13;7.50;;;26.80;85.70;;;;;;5112837;28;20047;-71
2023/06/18 09:54:06;;;;;;;11.00;7.70;;;26.90;85.60;;;;;;5112391;28;20079;-71
2023/06/18 09:56:32;;;;;;;10.90;7.83;;;27.00;83.70;;;;;;5112833;28;20056;-71
2023/06/18 09:58:58;;;;;;;8.70;7.13;;;27.10;82.10;;;;;;5094550;28;20375;-71
2023/06/18 10:01:27;;;;;;;9.60;7.27;;;27.10;80.40;;;;;;5112897;28;20039;-71
2023/06/18 10:03:52;;;;;;;9.13;6.93;;;27.20;78.20;;;;;;5094744;28;20059;-71
2023/06/18 10:06:20;;;;;;;9.20;6.33;;;27.20;75.80;;;;;;5112821;28;20390;-72
2023/06/18 10:08:51;;;;;;;9.17;7.30;;;27.30;72.70;;;;;;5112523;28;20130;-74
2023/06/18 10:11:18;;;;;;;7.63;6.40;;;27.30;70.30;;;;;;5112678;28;20091;-72
2023/06/18 10:13:53;;;;;;;9.23;6.57;;;27.30;69.10;;;;;;5110178;28;20360;-71
2023/06/18 10:16:20;;;;;;;8.37;6.67;;;27.30;67.20;;;;;;5092876;28;20039;-68
2023/06/18 10:18:54;;;;;;;10.00;6.90;;;27.40;67.40;;;;;;5115721;28;20095;-76
2023/06/18 10:21:23;;;;;;;8.90;6.30;;;27.40;65.40;;;;;;5096207;28;20044;-70
2023/06/18 10:23:54;;;;;;;8.67;6.57;;;27.50;64.80;;;;;;5111568;28;20044;-70
2023/06/18 10:26:21;;;;;;;9.43;6.70;;;27.50;64.30;;;;;;5095845;28;20086;-70
2023/06/18 10:28:49;;;;;;;7.90;6.57;;;27.60;63.90;;;;;;5095933;28;20050;-70
2023/06/18 10:31:15;;;;;;;8.73;7.13;;;27.60;62.70;;;;;;5095392;28;20515;-72
2023/06/18 10:33:42;;;;;;;10.43;7.10;;;27.60;62.60;;;;;;5095185;28;20040;-68
2023/06/18 10:36:08;;;;;;;9.07;6.47;;;27.50;61.90;;;;;;5095275;28;20109;-70
2023/06/18 10:38:35;;;;;;;9.93;6.30;;;27.60;61.70;;;;;;5095516;28;20118;-69
2023/06/18 10:41:11;;;;;;;8.57;7.10;;;27.70;62.10;;;;;;5095525;28;20051;-70
2023/06/18 10:43:41;;;;;;;9.80;7.13;;;27.80;61.20;;;;;;5111484;28;20108;-69
2023/06/18 10:46:09;;;;;;;8.23;6.60;;;27.80;59.20;;;;;;5095187;28;20059;-69
2023/06/18 10:48:35;;;;;;;9.27;6.63;;;27.70;59.60;;;;;;5095455;28;20066;-69
2023/06/18 10:51:15;;;;;;;8.00;6.90;;;27.70;59.80;;;;;;5095143;28;20480;-70
2023/06/18 10:53:46;;;;;;;11.63;6.63;;;27.70;60.00;;;;;;5077727;28;20503;-69
2023/06/18 10:56:14;;;;;;;8.32;6.82;;;27.70;59.30;;;;;;5095081;28;20091;-69
2023/06/18 10:58:41;;;;;;;9.93;6.93;;;27.60;58.80;;;;;;5111106;28;20082;-69
2023/06/18 11:01:22;;;;;;;7.80;6.25;;;27.60;58.60;;;;;;5095046;28;20446;-69
2023/06/18 11:04:01;;;;;;;7.57;6.05;;;27.70;58.40;;;;;;5095298;28;20047;-69
2023/06/18 11:06:29;;;;;;;9.10;6.73;;;27.80;56.80;;;;;;5095122;28;20526;-70
2023/06/18 11:08:55;;;;;;;7.65;6.03;;;27.80;57.60;;;;;;5076672;28;20048;-70
2023/06/18 11:11:23;;;;;;;8.83;6.77;;;28.00;58.10;;;;;;5106598;28;20048;-70
2023/06/18 11:13:53;;;;;;;8.03;6.20;;;28.10;57.60;;;;;;5115040;28;20035;-71
2023/06/18 11:16:20;;;;;;;9.37;6.73;;;28.20;57.20;;;;;;5115857;28;20051;-70
2023/06/18 11:18:46;;;;;;;8.23;6.47;;;28.30;56.70;;;;;;5097289;28;20083;-70
2023/06/18 11:21:16;;;;;;;8.73;6.13;;;28.30;56.00;;;;;;5114824;28;20121;-70
2023/06/18 11:23:43;;;;;;;8.45;6.30;;;28.30;55.50;;;;;;5115148;28;20047;-70
2023/06/18 11:26:16;;;;;;;9.93;6.45;;;28.30;55.90;;;;;;5114934;28;20116;-70
2023/06/18 11:28:42;;;;;;;7.35;6.00;;;28.30;55.40;;;;;;5114813;28;20058;-70
2023/06/18 11:31:08;;;;;;;8.43;6.30;;;28.40;55.70;;;;;;5114647;28;20120;-70
2023/06/18 11:33:34;;;;;;;10.82;6.88;;;28.40;55.40;;;;;;5114860;28;20031;-70
2023/06/18 11:36:13;;;;;;;9.13;6.82;;;28.40;55.20;;;;;;5114624;28;20093;-70
2023/06/18 11:38:41;;;;;;;9.77;6.72;;;28.50;55.30;;;;;;5114996;28;20126;-71
2023/06/18 11:41:08;;;;;;;8.57;6.20;;;28.60;54.80;;;;;;5114564;28;20044;-69
2023/06/18 11:43:45;;;;;;;9.35;5.88;;;28.50;54.40;;;;;;5096687;28;20044;-70
2023/06/18 11:46:35;;;;;;;8.00;5.60;;;28.60;54.30;;;;;;5114537;28;20120;-70
2023/06/18 11:49:01;;;;;;;6.57;5.65;;;28.80;53.20;;;;;;5096363;28;20133;-71
2023/06/18 11:51:28;;;;;;;6.90;6.15;;;28.90;53.50;;;;;;5114790;28;20078;-70
2023/06/18 11:53:55;;;;;;;8.63;6.13;;;28.90;53.20;;;;;;5114560;28;20069;-70
2023/06/18 11:56:26;;;;;;;7.65;6.07;;;28.90;52.30;;;;;;5114374;28;20126;-70
2023/06/18 11:58:54;;;;;;;8.15;5.65;;;28.70;51.50;;;;;;5114694;28;20050;-70
2023/06/18 12:01:24;;;;;;;9.48;5.90;;;28.70;52.30;;;;;;5114242;28;20083;-70
2023/06/18 12:03:50;;;;;;;7.25;5.00;;;28.80;52.30;;;;;;5114483;28;20039;-70
2023/06/18 12:06:15;;;;;;;6.88;5.15;;;28.90;51.40;;;;;;5114047;28;20062;-70
2023/06/18 12:08:45;;;;;;;7.28;4.90;;;29.00;50.90;;;;;;5114498;28;20107;-70
2023/06/18 12:11:38;;;;;;;8.13;4.90;;;28.90;49.30;;;;;;5114011;28;20047;-70
2023/06/18 12:14:11;;;;;;;7.80;4.78;;;28.90;48.80;;;;;;5044459;28;20078;-68
2023/06/18 12:16:41;;;;;;;6.10;4.90;;;28.90;47.70;;;;;;5114162;28;20059;-69
2023/06/18 12:19:10;;;;;;;8.25;5.65;;;28.90;48.70;;;;;;5113805;28;20100;-71
2023/06/18 12:21:35;;;;;;;7.90;5.85;;;29.00;49.30;;;;;;5114103;28;20054;-68
2023/06/18 12:24:01;;;;;;;7.70;5.82;;;28.90;48.90;;;;;;5113778;28;20043;-70
2023/06/18 12:26:27;;;;;;;9.32;5.18;;;28.90;49.00;;;;;;5078898;28;20468;-70
2023/06/18 12:28:56;;;;;;;9.02;5.50;;;28.90;49.00;;;;;;5113920;28;20087;-71
2023/06/18 12:31:21;;;;;;;8.18;5.30;;;28.90;48.70;;;;;;5113557;28;20125;-71